Time;durP1;ratioP1;P1;durP2;ratioP2;P2;SDS_P1;SDS_P2;PMS_P1;PMS_P2;Temp;Humidity;BMP_temperature;BMP_pressure;BME280_temperature;BME280_humidity;BME280_pressure;Samples;Min_cycle;Max_cycle;Signal;HPM_P1;HPM_P2
2021/11/18 00:02:01;;;;;;;;;32.00;31.50;;;;;;;;5036393;28;45458;-73
2021/11/18 00:04:26;;;;;;;;;30.75;28.50;;;;;;;;5036391;28;46205;-72
2021/11/18 00:06:52;;;;;;;;;35.75;29.75;;;;;;;;5036220;28;45446;-72
2021/11/18 00:09:18;;;;;;;;;25.25;24.00;;;;;;;;5036081;28;45387;-73
2021/11/18 00:11:43;;;;;;;;;29.00;25.00;;;;;;;;5036304;28;45406;-72
2021/11/18 00:14:08;;;;;;;;;31.00;31.00;;;;;;;;5036479;28;45991;-71
2021/11/18 00:16:34;;;;;;;;;32.75;26.00;;;;;;;;5035980;28;45522;-72
2021/11/18 00:18:59;;;;;;;;;25.75;23.50;;;;;;;;5035948;28;46330;-71
2021/11/18 00:21:27;;;;;;;;;30.25;28.25;;;;;;;;5036066;28;45367;-73
2021/11/18 00:23:53;;;;;;;;;27.50;24.25;;;;;;;;5035830;28;47192;-70
2021/11/18 00:26:19;;;;;;;;;29.00;26.25;;;;;;;;5036663;28;45297;-73
2021/11/18 00:28:45;;;;;;;;;27.25;25.00;;;;;;;;5035908;28;45407;-72
2021/11/18 00:31:12;;;;;;;;;31.75;26.50;;;;;;;;5035762;28;45479;-72
2021/11/18 00:33:38;;;;;;;;;32.50;26.50;;;;;;;;5035824;28;47150;-72
2021/11/18 00:36:04;;;;;;;;;26.75;23.75;;;;;;;;5035865;28;45821;-72
2021/11/18 00:38:30;;;;;;;;;28.50;24.25;;;;;;;;5035645;28;45534;-72
2021/11/18 00:40:56;;;;;;;;;26.50;21.50;;;;;;;;5035929;28;45561;-72
2021/11/18 00:43:21;;;;;;;;;25.25;22.00;;;;;;;;5035843;28;46197;-72
2021/11/18 00:45:47;;;;;;;;;21.75;21.00;;;;;;;;5035571;28;46561;-73
2021/11/18 00:48:12;;;;;;;;;23.50;20.00;;;;;;;;5035911;28;45345;-72
2021/11/18 00:50:43;;;;;;;;;25.50;24.75;;;;;;;;5035996;28;45381;-72
2021/11/18 00:53:08;;;;;;;;;22.75;21.50;;;;;;;;5034816;28;45517;-72
2021/11/18 00:55:33;;;;;;;;;28.50;23.25;;;;;;;;5035485;28;45311;-71
2021/11/18 00:57:59;;;;;;;;;22.00;22.00;;;;;;;;5036029;28;45355;-72
2021/11/18 01:00:26;;;;;;;;;25.00;21.00;;;;;;;;5035582;28;45454;-71
2021/11/18 01:02:51;;;;;;;;;25.00;23.00;;;;;;;;5035672;28;46147;-72
2021/11/18 01:05:18;;;;;;;;;29.75;23.00;;;;;;;;5018380;28;45938;-72
2021/11/18 01:07:43;;;;;;;;;23.50;22.75;;;;;;;;5035733;28;45391;-72
2021/11/18 01:10:10;;;;;;;;;26.25;23.00;;;;;;;;5035972;28;45408;-71
2021/11/18 01:12:35;;;;;;;;;25.25;23.50;;;;;;;;5035771;28;45478;-72
2021/11/18 01:15:00;;;;;;;;;24.50;24.00;;;;;;;;5035996;28;45246;-72
2021/11/18 01:17:25;;;;;;;;;25.75;24.75;;;;;;;;5036810;28;45527;-72
2021/11/18 01:19:51;;;;;;;;;26.75;23.00;;;;;;;;5035434;28;45537;-72
2021/11/18 01:22:19;;;;;;;;;20.25;16.75;;;;;;;;5035151;28;45411;-72
2021/11/18 01:24:44;;;;;;;;;26.00;22.75;;;;;;;;5035136;28;45360;-72
2021/11/18 01:27:10;;;;;;;;;27.25;25.50;;;;;;;;5035084;28;45348;-72
2021/11/18 01:29:35;;;;;;;;;27.00;25.00;;;;;;;;5035724;28;45437;-71
2021/11/18 01:32:00;;;;;;;;;25.00;25.00;;;;;;;;5035510;28;46087;-72
2021/11/18 01:34:26;;;;;;;;;22.75;20.50;;;;;;;;5035197;28;45486;-72
2021/11/18 01:36:52;;;;;;;;;26.00;25.00;;;;;;;;5034843;28;45372;-71
2021/11/18 01:39:17;;;;;;;;;29.25;27.00;;;;;;;;5035543;28;45463;-72
2021/11/18 01:41:42;;;;;;;;;22.50;17.50;;;;;;;;5035338;28;45494;-72
2021/11/18 01:44:15;;;;;;;;;25.00;23.75;;;;;;;;5035751;28;45413;-73
2021/11/18 01:46:41;;;;;;;;;24.75;24.25;;;;;;;;5035270;28;45384;-72
2021/11/18 01:49:07;;;;;;;;;25.00;23.75;;;;;;;;5035134;28;45520;-72
2021/11/18 01:51:35;;;;;;;;;29.00;24.75;;;;;;;;5034712;28;45447;-72
2021/11/18 01:54:01;;;;;;;;;27.00;22.00;;;;;;;;5035209;28;45443;-72
2021/11/18 01:56:28;;;;;;;;;28.50;23.25;;;;;;;;5035421;28;45407;-71
2021/11/18 01:58:58;;;;;;;;;27.75;25.75;;;;;;;;5034823;28;45603;-70
2021/11/18 02:01:24;;;;;;;;;32.50;27.00;;;;;;;;5034672;28;46173;-72
2021/11/18 02:03:49;;;;;;;;;32.25;26.00;;;;;;;;5034750;28;45258;-71
2021/11/18 02:06:14;;;;;;;;;25.00;23.75;;;;;;;;5034766;28;45494;-72
2021/11/18 02:08:39;;;;;;;;;27.25;25.75;;;;;;;;5035098;28;45353;-71
2021/11/18 02:11:14;;;;;;;;;26.25;24.25;;;;;;;;5017333;28;46231;-72
2021/11/18 02:13:39;;;;;;;;;31.00;26.25;;;;;;;;5034815;28;45888;-71
2021/11/18 02:16:12;;;;;;;;;34.50;30.00;;;;;;;;5034973;28;45480;-71
2021/11/18 02:18:37;;;;;;;;;26.00;24.00;;;;;;;;5034924;28;45461;-71
2021/11/18 02:21:05;;;;;;;;;31.00;30.50;;;;;;;;5034509;28;47337;-71
2021/11/18 02:23:33;;;;;;;;;29.00;26.00;;;;;;;;5031462;28;45450;-72
2021/11/18 02:25:59;;;;;;;;;23.50;22.00;;;;;;;;5034949;28;45566;-72
2021/11/18 02:28:26;;;;;;;;;31.00;27.00;;;;;;;;5034720;28;45415;-72
2021/11/18 02:30:52;;;;;;;;;27.75;24.00;;;;;;;;5016653;28;47101;-72
2021/11/18 02:33:18;;;;;;;;;31.00;25.25;;;;;;;;5034784;28;45470;-72
2021/11/18 02:35:43;;;;;;;;;29.00;28.50;;;;;;;;5034638;28;45354;-72
2021/11/18 02:38:10;;;;;;;;;29.50;26.00;;;;;;;;5033797;28;45260;-72
2021/11/18 02:40:36;;;;;;;;;25.75;25.50;;;;;;;;5034388;28;47114;-72
2021/11/18 02:43:02;;;;;;;;;34.50;26.50;;;;;;;;5034446;28;45434;-71
2021/11/18 02:45:30;;;;;;;;;30.25;27.00;;;;;;;;5034699;28;45963;-73
2021/11/18 02:47:56;;;;;;;;;24.00;23.25;;;;;;;;5034643;28;45430;-72
2021/11/18 02:50:23;;;;;;;;;29.50;22.50;;;;;;;;5034700;28;45466;-72
2021/11/18 02:52:49;;;;;;;;;31.75;27.00;;;;;;;;5034012;28;45489;-72
2021/11/18 02:55:17;;;;;;;;;24.00;23.50;;;;;;;;5034399;28;45345;-71
2021/11/18 02:57:42;;;;;;;;;27.00;24.00;;;;;;;;5034343;28;45526;-71
2021/11/18 03:00:09;;;;;;;;;30.00;26.00;;;;;;;;5034391;28;45748;-72
2021/11/18 03:02:34;;;;;;;;;29.00;22.25;;;;;;;;5016806;28;45891;-72
2021/11/18 03:04:59;;;;;;;;;29.50;27.25;;;;;;;;5033983;28;45452;-70
2021/11/18 03:07:24;;;;;;;;;28.00;24.00;;;;;;;;5034116;28;45503;-72
2021/11/18 03:09:50;;;;;;;;;27.50;25.25;;;;;;;;5033944;28;45458;-70
2021/11/18 03:12:15;;;;;;;;;32.75;27.25;;;;;;;;5034141;28;45547;-71
2021/11/18 03:14:40;;;;;;;;;29.00;25.50;;;;;;;;5034164;28;45409;-71
2021/11/18 03:17:06;;;;;;;;;30.25;29.00;;;;;;;;5034341;28;45282;-71
2021/11/18 03:19:32;;;;;;;;;33.75;30.25;;;;;;;;5033306;28;47078;-73
2021/11/18 03:21:57;;;;;;;;;33.00;29.75;;;;;;;;5033752;28;45439;-73
2021/11/18 03:24:23;;;;;;;;;30.00;27.50;;;;;;;;5034139;28;45320;-72
2021/11/18 03:26:48;;;;;;;;;33.25;32.00;;;;;;;;5034008;28;45229;-72
2021/11/18 03:29:13;;;;;;;;;32.25;31.00;;;;;;;;5034237;28;46201;-72
2021/11/18 03:31:39;;;;;;;;;37.00;33.50;;;;;;;;5033723;28;45574;-73
2021/11/18 03:34:12;;;;;;;;;35.50;32.50;;;;;;;;5033458;28;45241;-73
2021/11/18 03:36:38;;;;;;;;;38.75;31.75;;;;;;;;5033536;28;45483;-72
2021/11/18 03:39:07;;;;;;;;;34.25;30.00;;;;;;;;5033895;28;45307;-71
2021/11/18 03:41:34;;;;;;;;;31.25;29.50;;;;;;;;5012678;28;45499;-71
2021/11/18 03:44:01;;;;;;;;;32.00;26.75;;;;;;;;5034028;28;45535;-72
2021/11/18 03:46:29;;;;;;;;;26.25;24.25;;;;;;;;5033657;28;45470;-72
2021/11/18 03:48:54;;;;;;;;;24.25;23.25;;;;;;;;5034096;28;47089;-72
2021/11/18 03:51:20;;;;;;;;;28.50;25.50;;;;;;;;5037195;28;45224;-72
2021/11/18 03:53:46;;;;;;;;;35.25;29.50;;;;;;;;5037016;28;45340;-71
2021/11/18 03:56:14;;;;;;;;;40.75;33.75;;;;;;;;5036462;28;45400;-72
2021/11/18 03:58:39;;;;;;;;;32.25;27.75;;;;;;;;5036642;28;46033;-72
2021/11/18 04:01:05;;;;;;;;;33.75;29.00;;;;;;;;5036749;28;45453;-73
2021/11/18 04:03:31;;;;;;;;;33.00;30.00;;;;;;;;5035834;28;45372;-71
2021/11/18 04:05:57;;;;;;;;;33.50;28.25;;;;;;;;5036750;28;45489;-72
2021/11/18 04:08:22;;;;;;;;;29.75;29.25;;;;;;;;5037349;28;47016;-72
2021/11/18 04:10:47;;;;;;;;;34.00;29.00;;;;;;;;5036793;28;45361;-72
2021/11/18 04:13:13;;;;;;;;;33.75;27.50;;;;;;;;5036859;28;45410;-72
2021/11/18 04:15:38;;;;;;;;;24.75;23.00;;;;;;;;5036698;28;45463;-72
2021/11/18 04:18:04;;;;;;;;;33.00;26.75;;;;;;;;5036098;28;45430;-72
2021/11/18 04:20:30;;;;;;;;;27.75;27.00;;;;;;;;5032700;28;45563;-71
2021/11/18 04:22:56;;;;;;;;;24.50;23.00;;;;;;;;5036554;28;45431;-72
2021/11/18 04:25:24;;;;;;;;;32.50;26.00;;;;;;;;5018176;28;45483;-71
2021/11/18 04:27:49;;;;;;;;;31.00;27.00;;;;;;;;5035954;28;45453;-72
2021/11/18 04:30:16;;;;;;;;;34.50;30.25;;;;;;;;5036218;28;45489;-71
2021/11/18 04:32:42;;;;;;;;;29.75;26.25;;;;;;;;5036112;28;45438;-72
2021/11/18 04:35:08;;;;;;;;;30.50;25.50;;;;;;;;5036533;28;45316;-71
2021/11/18 04:37:33;;;;;;;;;33.75;27.75;;;;;;;;5035833;28;46385;-71
2021/11/18 04:39:58;;;;;;;;;29.50;27.00;;;;;;;;5035860;28;45287;-72
2021/11/18 04:42:24;;;;;;;;;27.25;21.50;;;;;;;;5036054;28;45272;-72
2021/11/18 04:44:49;;;;;;;;;31.25;28.75;;;;;;;;5035387;28;45459;-70
2021/11/18 04:47:14;;;;;;;;;30.75;28.00;;;;;;;;5036143;28;46184;-72
2021/11/18 04:49:41;;;;;;;;;27.25;22.50;;;;;;;;5035746;28;45405;-73
2021/11/18 04:52:07;;;;;;;;;27.75;27.25;;;;;;;;5036017;28;45505;-72
2021/11/18 04:54:33;;;;;;;;;29.25;28.50;;;;;;;;5036082;28;45419;-73
2021/11/18 04:56:58;;;;;;;;;32.50;30.50;;;;;;;;5035867;28;46393;-73
2021/11/18 04:59:23;;;;;;;;;27.00;26.00;;;;;;;;5035773;28;45656;-73
2021/11/18 05:01:48;;;;;;;;;25.00;22.50;;;;;;;;5034747;28;45380;-71
2021/11/18 05:04:14;;;;;;;;;30.25;29.25;;;;;;;;5035721;28;45418;-73
2021/11/18 05:06:39;;;;;;;;;27.25;25.75;;;;;;;;5035304;28;47020;-72
2021/11/18 05:09:06;;;;;;;;;34.00;28.50;;;;;;;;5035282;28;45538;-72
2021/11/18 05:11:31;;;;;;;;;37.50;31.00;;;;;;;;5036313;28;45354;-73
2021/11/18 05:13:56;;;;;;;;;30.25;26.00;;;;;;;;5034905;28;46317;-72
2021/11/18 05:16:21;;;;;;;;;30.25;25.75;;;;;;;;5034563;28;45423;-72
2021/11/18 05:18:47;;;;;;;;;33.75;29.50;;;;;;;;5035173;28;45525;-72
2021/11/18 05:21:13;;;;;;;;;31.00;26.25;;;;;;;;5035277;28;45470;-72
2021/11/18 05:23:39;;;;;;;;;33.75;31.00;;;;;;;;5017194;28;45390;-72
2021/11/18 05:26:04;;;;;;;;;28.25;27.25;;;;;;;;5035279;28;46227;-72
2021/11/18 05:28:29;;;;;;;;;35.75;30.75;;;;;;;;5034142;28;45453;-72
2021/11/18 05:30:55;;;;;;;;;28.50;26.50;;;;;;;;5034454;28;45274;-71
2021/11/18 05:33:22;;;;;;;;;35.50;31.25;;;;;;;;5034955;28;45364;-71
2021/11/18 05:35:47;;;;;;;;;32.25;29.75;;;;;;;;5016240;28;47207;-73
2021/11/18 05:38:13;;;;;;;;;40.75;33.25;;;;;;;;5035105;28;45288;-73
2021/11/18 05:40:39;;;;;;;;;29.00;22.25;;;;;;;;5034885;28;45466;-72
2021/11/18 05:43:05;;;;;;;;;39.00;35.00;;;;;;;;5034194;28;45303;-72
2021/11/18 05:45:32;;;;;;;;;36.75;27.25;;;;;;;;5034336;28;45296;-73
2021/11/18 05:47:58;;;;;;;;;37.00;33.00;;;;;;;;5034035;28;45308;-72
2021/11/18 05:50:24;;;;;;;;;31.50;29.50;;;;;;;;5034874;28;45411;-72
2021/11/18 05:52:49;;;;;;;;;30.25;28.00;;;;;;;;5034216;28;45407;-72
2021/11/18 05:55:16;;;;;;;;;25.00;23.25;;;;;;;;5033648;28;46514;-71
2021/11/18 05:57:42;;;;;;;;;34.25;30.00;;;;;;;;5033296;28;45498;-73
2021/11/18 06:00:09;;;;;;;;;36.00;31.75;;;;;;;;5016285;28;45457;-73
2021/11/18 06:02:34;;;;;;;;;35.50;31.75;;;;;;;;5016033;28;45417;-72
2021/11/18 06:04:59;;;;;;;;;32.50;28.75;;;;;;;;5034039;28;45505;-72
2021/11/18 06:07:24;;;;;;;;;25.50;23.25;;;;;;;;5015967;28;45408;-71
2021/11/18 06:09:50;;;;;;;;;27.75;25.75;;;;;;;;5034054;28;45708;-72
2021/11/18 06:12:17;;;;;;;;;29.25;24.75;;;;;;;;5033396;28;45460;-72
2021/11/18 06:14:42;;;;;;;;;38.00;29.75;;;;;;;;5034116;28;47383;-73
2021/11/18 06:17:07;;;;;;;;;45.50;34.25;;;;;;;;5034416;28;46171;-72
2021/11/18 06:19:34;;;;;;;;;24.50;24.00;;;;;;;;5033281;28;45585;-73
2021/11/18 06:21:59;;;;;;;;;32.50;30.25;;;;;;;;5033600;28;45515;-74
2021/11/18 06:24:25;;;;;;;;;34.25;30.25;;;;;;;;5033203;28;45375;-73
2021/11/18 06:26:51;;;;;;;;;30.00;25.25;;;;;;;;5033386;28;47669;-73
2021/11/18 06:29:20;;;;;;;;;41.00;33.75;;;;;;;;5033698;28;45413;-74
2021/11/18 06:31:50;;;;;;;;;38.50;33.00;;;;;;;;5033053;28;45567;-72
2021/11/18 06:34:15;;;;;;;;;35.75;30.00;;;;;;;;5033150;28;46242;-73
2021/11/18 06:36:41;;;;;;;;;33.50;26.25;;;;;;;;5033416;28;45261;-72
2021/11/18 06:39:06;;;;;;;;;31.50;28.25;;;;;;;;5032995;28;45827;-72
2021/11/18 06:41:32;;;;;;;;;41.50;36.75;;;;;;;;5015888;28;45584;-72
2021/11/18 06:43:58;;;;;;;;;33.50;28.25;;;;;;;;5032717;28;46967;-73
2021/11/18 06:46:23;;;;;;;;;28.25;28.25;;;;;;;;5032415;28;45484;-73
2021/11/18 06:48:49;;;;;;;;;37.00;33.50;;;;;;;;5032890;28;45527;-73
2021/11/18 06:51:18;;;;;;;;;32.25;28.00;;;;;;;;5032573;28;45485;-72
2021/11/18 06:53:43;;;;;;;;;27.25;26.75;;;;;;;;5032757;28;46402;-73
2021/11/18 06:56:10;;;;;;;;;34.00;31.50;;;;;;;;5032688;28;45711;-73
2021/11/18 06:58:35;;;;;;;;;37.00;33.00;;;;;;;;5032458;28;45523;-72
2021/11/18 07:01:00;;;;;;;;;29.50;26.50;;;;;;;;5032450;28;45240;-73
2021/11/18 07:03:26;;;;;;;;;24.00;18.75;;;;;;;;5033034;28;46205;-73
2021/11/18 07:05:52;;;;;;;;;31.75;28.25;;;;;;;;5032092;28;45541;-73
2021/11/18 07:08:17;;;;;;;;;31.50;28.75;;;;;;;;5033156;28;45268;-73
2021/11/18 07:10:43;;;;;;;;;33.25;26.00;;;;;;;;5031642;28;45381;-73
2021/11/18 07:13:16;;;;;;;;;27.50;27.50;;;;;;;;5032194;28;45345;-73
2021/11/18 07:15:41;;;;;;;;;44.25;36.75;;;;;;;;5032073;28;45628;-74
2021/11/18 07:18:07;;;;;;;;;32.75;28.00;;;;;;;;5032034;28;45419;-73
2021/11/18 07:20:32;;;;;;;;;33.00;30.75;;;;;;;;5032884;28;45527;-72
2021/11/18 07:22:58;;;;;;;;;28.50;26.00;;;;;;;;5032068;28;46217;-73
2021/11/18 07:25:24;;;;;;;;;35.00;32.50;;;;;;;;5035418;28;45517;-73
2021/11/18 07:27:50;;;;;;;;;29.75;27.75;;;;;;;;5035996;28;45613;-73
2021/11/18 07:30:16;;;;;;;;;29.25;25.00;;;;;;;;5035695;28;45343;-73
2021/11/18 07:32:41;;;;;;;;;32.50;27.75;;;;;;;;5035912;28;45529;-74
2021/11/18 07:35:06;;;;;;;;;35.00;29.00;;;;;;;;5035642;28;45403;-74
2021/11/18 07:37:32;;;;;;;;;37.00;33.25;;;;;;;;5035157;28;45360;-72
2021/11/18 07:39:58;;;;;;;;;32.25;29.25;;;;;;;;5034613;28;45524;-74
2021/11/18 07:42:23;;;;;;;;;33.75;28.50;;;;;;;;5034913;28;46930;-73
2021/11/18 07:44:49;;;;;;;;;40.50;33.75;;;;;;;;5016776;28;45365;-73
2021/11/18 07:47:14;;;;;;;;;35.25;30.00;;;;;;;;5033255;28;45444;-73
2021/11/18 07:49:39;;;;;;;;;39.00;32.50;;;;;;;;5034700;28;45424;-73
2021/11/18 07:52:04;;;;;;;;;32.50;27.25;;;;;;;;5034653;28;46359;-74
2021/11/18 07:54:30;;;;;;;;;38.25;33.50;;;;;;;;5034376;28;45483;-73
2021/11/18 07:56:55;;;;;;;;;47.00;38.25;;;;;;;;5016620;28;45617;-73
2021/11/18 07:59:22;;;;;;;;;34.75;31.75;;;;;;;;5035423;28;45419;-72
2021/11/18 08:01:47;;;;;;;;;41.50;32.75;;;;;;;;5034432;28;46423;-73
2021/11/18 08:04:13;;;;;;;;;42.25;35.00;;;;;;;;5034840;28;45334;-73
2021/11/18 08:06:39;;;;;;;;;42.50;36.25;;;;;;;;5035559;28;45368;-73
2021/11/18 08:09:04;;;;;;;;;37.25;32.25;;;;;;;;5034587;28;45446;-73
2021/11/18 08:11:34;;;;;;;;;37.25;31.75;;;;;;;;5035060;28;45509;-73
2021/11/18 08:14:00;;;;;;;;;37.25;33.25;;;;;;;;5034198;28;45288;-74
2021/11/18 08:16:25;;;;;;;;;40.75;35.75;;;;;;;;5034596;28;45329;-73
2021/11/18 08:18:51;;;;;;;;;50.25;41.50;;;;;;;;5034363;28;45335;-72
2021/11/18 08:21:16;;;;;;;;;41.00;35.50;;;;;;;;5033748;28;47340;-72
2021/11/18 08:23:42;;;;;;;;;41.75;36.00;;;;;;;;5033912;28;45548;-73
2021/11/18 08:26:09;;;;;;;;;32.50;31.50;;;;;;;;5034602;28;45476;-73
2021/11/18 08:28:34;;;;;;;;;41.00;35.50;;;;;;;;5034340;28;45583;-73
2021/11/18 08:31:01;;;;;;;;;34.25;30.50;;;;;;;;5033846;28;45525;-73
2021/11/18 08:33:27;;;;;;;;;38.75;30.75;;;;;;;;5034635;28;45419;-73
2021/11/18 08:35:52;;;;;;;;;39.00;35.00;;;;;;;;5034402;28;45605;-73
2021/11/18 08:38:18;;;;;;;;;33.50;32.50;;;;;;;;5034550;28;46356;-73
2021/11/18 08:40:46;;;;;;;;;44.25;37.00;;;;;;;;5033443;28;46183;-72
2021/11/18 08:43:11;;;;;;;;;41.75;34.00;;;;;;;;5034187;28;45497;-72
2021/11/18 08:45:37;;;;;;;;;44.75;38.25;;;;;;;;5034749;28;45716;-73
2021/11/18 08:48:06;;;;;;;;;44.50;37.25;;;;;;;;5034141;28;45344;-73
2021/11/18 08:50:31;;;;;;;;;44.75;36.25;;;;;;;;5030250;28;46260;-73
2021/11/18 08:52:57;;;;;;;;;45.50;37.25;;;;;;;;5033028;28;45452;-73
2021/11/18 08:55:25;;;;;;;;;43.50;34.75;;;;;;;;5034375;28;45271;-72
2021/11/18 08:57:50;;;;;;;;;41.75;35.75;;;;;;;;5015265;28;45548;-72
2021/11/18 09:00:36;;;;;;;;;46.00;35.50;;;;;;;;5015021;28;47032;-72
2021/11/18 09:03:01;;;;;;;;;48.00;38.25;;;;;;;;5005332;28;46350;-72
2021/11/18 09:05:28;;;;;;;;;45.75;38.00;;;;;;;;5034782;28;45510;-71
2021/11/18 09:07:54;;;;;;;;;51.50;42.75;;;;;;;;5033521;28;45378;-74
2021/11/18 09:10:19;;;;;;;;;46.00;38.00;;;;;;;;5033392;28;45450;-72
2021/11/18 09:12:45;;;;;;;;;47.25;39.50;;;;;;;;5033758;28;48895;-72
2021/11/18 09:15:12;;;;;;;;;51.25;41.75;;;;;;;;5034500;28;45521;-73
2021/11/18 09:17:37;;;;;;;;;47.75;37.50;;;;;;;;5034325;28;45268;-72
2021/11/18 09:20:05;;;;;;;;;50.50;37.75;;;;;;;;5015570;28;48403;-72
2021/11/18 09:22:30;;;;;;;;;49.00;37.50;;;;;;;;5033258;28;45370;-72
2021/11/18 09:24:57;;;;;;;;;47.50;39.25;;;;;;;;5015526;28;45446;-72
2021/11/18 09:27:25;;;;;;;;;47.75;40.50;;;;;;;;5033842;28;45493;-73
2021/11/18 09:29:51;;;;;;;;;47.25;39.00;;;;;;;;5033348;28;46186;-72
2021/11/18 09:32:17;;;;;;;;;49.50;41.75;;;;;;;;5034383;28;45359;-72
2021/11/18 09:34:43;;;;;;;;;55.75;45.25;;;;;;;;5015668;28;45316;-73
2021/11/18 09:37:08;;;;;;;;;50.25;39.25;;;;;;;;5033165;28;45435;-73
2021/11/18 09:39:34;;;;;;;;;52.00;43.00;;;;;;;;5033428;28;45943;-73
2021/11/18 09:42:17;;;;;;;;;48.75;40.50;;;;;;;;5033900;28;45346;-73
2021/11/18 09:44:52;;;;;;;;;47.00;40.00;;;;;;;;5031158;28;45308;-73
2021/11/18 09:47:54;;;;;;;;;53.25;41.00;;;;;;;;5032144;28;45290;-73
2021/11/18 09:50:37;;;;;;;;;48.75;40.50;;;;;;;;4972285;28;46097;-72
2021/11/18 09:53:02;;;;;;;;;54.25;45.00;;;;;;;;4972456;28;45599;-72
2021/11/18 09:55:30;;;;;;;;;42.75;38.00;;;;;;;;4971893;28;45336;-73
2021/11/18 09:58:01;;;;;;;;;55.50;44.75;;;;;;;;4971704;28;45378;-73
2021/11/18 10:00:46;;;;;;;;;40.50;37.75;;;;;;;;4971007;28;46228;-73
2021/11/18 10:03:30;;;;;;;;;50.75;39.25;;;;;;;;4971909;28;47701;-72
2021/11/18 10:06:04;;;;;;;;;56.00;43.75;;;;;;;;4970760;28;45365;-72
2021/11/18 10:08:32;;;;;;;;;50.00;40.25;;;;;;;;4971773;28;45331;-73
2021/11/18 10:11:05;;;;;;;;;46.00;36.75;;;;;;;;4971251;28;46642;-72
2021/11/18 10:13:36;;;;;;;;;41.25;37.50;;;;;;;;4971832;28;46003;-73
2021/11/18 10:16:17;;;;;;;;;41.50;39.00;;;;;;;;4971279;28;45533;-72
2021/11/18 10:18:45;;;;;;;;;49.75;41.50;;;;;;;;4971019;28;45460;-73
2021/11/18 10:21:19;;;;;;;;;48.75;39.50;;;;;;;;4971074;28;46884;-73
2021/11/18 10:23:45;;;;;;;;;45.00;37.00;;;;;;;;4987908;28;45399;-73
2021/11/18 10:26:14;;;;;;;;;40.50;33.75;;;;;;;;5033836;28;45399;-73
2021/11/18 10:29:02;;;;;;;;;34.75;32.75;;;;;;;;5033628;28;45625;-73
2021/11/18 10:31:37;;;;;;;;;46.00;34.50;;;;;;;;5024913;28;46447;-73
2021/11/18 10:34:13;;;;;;;;;45.50;36.00;;;;;;;;5034771;28;45447;-71
2021/11/18 10:36:43;;;;;;;;;34.75;33.50;;;;;;;;5033143;28;45520;-72
2021/11/18 10:39:21;;;;;;;;;33.00;30.00;;;;;;;;5032908;28;45223;-72
2021/11/18 10:41:51;;;;;;;;;29.25;26.25;;;;;;;;5033121;28;45487;-72
2021/11/18 10:44:25;;;;;;;;;20.50;20.50;;;;;;;;5031739;28;45299;-73
2021/11/18 10:46:56;;;;;;;;;22.50;21.00;;;;;;;;5033039;28;45450;-73
2021/11/18 10:49:40;;;;;;;;;24.50;23.25;;;;;;;;5032717;28;45478;-73
2021/11/18 10:52:08;;;;;;;;;31.25;27.50;;;;;;;;5032733;28;46649;-72
2021/11/18 10:54:42;;;;;;;;;32.00;30.00;;;;;;;;5032770;28;45501;-71
2021/11/18 10:57:09;;;;;;;;;32.25;26.25;;;;;;;;5017497;28;45517;-73
2021/11/18 10:59:40;;;;;;;;;38.50;28.50;;;;;;;;5035698;28;45388;-72
2021/11/18 11:02:35;;;;;;;;;27.50;24.25;;;;;;;;5036239;28;46057;-72
2021/11/18 11:05:20;;;;;;;;;29.25;27.25;;;;;;;;5022450;28;45584;-72
2021/11/18 11:07:45;;;;;;;;;25.25;23.50;;;;;;;;5035344;28;45477;-71
2021/11/18 11:10:12;;;;;;;;;28.75;26.00;;;;;;;;5035888;28;45467;-72
2021/11/18 11:12:42;;;;;;;;;32.25;26.00;;;;;;;;5035574;28;46357;-73
2021/11/18 11:15:13;;;;;;;;;23.25;20.50;;;;;;;;5019955;28;45709;-73
2021/11/18 11:17:58;;;;;;;;;25.75;20.75;;;;;;;;5035720;28;45348;-73
2021/11/18 11:20:44;;;;;;;;;25.50;21.50;;;;;;;;5036480;28;45394;-72
2021/11/18 11:23:28;;;;;;;;;25.75;24.25;;;;;;;;5017121;28;48214;-72
2021/11/18 11:25:53;;;;;;;;;19.00;15.25;;;;;;;;5017733;28;45246;-73
2021/11/18 11:28:41;;;;;;;;;23.00;17.75;;;;;;;;5035361;28;45446;-73
2021/11/18 11:31:12;;;;;;;;;20.75;19.25;;;;;;;;5034910;28;45517;-73
2021/11/18 11:33:51;;;;;;;;;12.00;12.00;;;;;;;;5034120;28;46647;-74
2021/11/18 11:36:30;;;;;;;;;18.00;18.00;;;;;;;;5020678;28;45485;-74
2021/11/18 11:38:59;;;;;;;;;20.50;16.50;;;;;;;;5035092;28;45405;-73
2021/11/18 11:41:27;;;;;;;;;21.25;17.25;;;;;;;;5035363;28;45286;-73
2021/11/18 11:43:58;;;;;;;;;27.25;23.00;;;;;;;;5034157;28;46279;-73
2021/11/18 11:46:26;;;;;;;;;18.75;17.25;;;;;;;;5034094;28;45496;-74
2021/11/18 11:48:51;;;;;;;;;16.75;15.50;;;;;;;;5035097;28;45455;-73
2021/11/18 11:51:19;;;;;;;;;21.50;21.50;;;;;;;;5035007;28;45547;-74
2021/11/18 11:54:03;;;;;;;;;26.50;22.50;;;;;;;;5034361;28;46295;-75
2021/11/18 11:56:40;;;;;;;;;22.75;21.00;;;;;;;;5034647;28;45276;-74
2021/11/18 11:59:08;;;;;;;;;14.50;14.00;;;;;;;;5034771;28;47015;-73
2021/11/18 12:01:37;;;;;;;;;12.25;10.00;;;;;;;;5033578;28;45464;-74
2021/11/18 12:04:05;;;;;;;;;15.75;13.50;;;;;;;;5033666;28;46300;-75
2021/11/18 12:06:47;;;;;;;;;17.75;14.00;;;;;;;;5034668;28;45370;-74
2021/11/18 12:09:44;;;;;;;;;15.00;14.00;;;;;;;;5019841;28;45333;-74
2021/11/18 12:12:21;;;;;;;;;23.00;16.75;;;;;;;;4938299;28;45316;-73
2021/11/18 12:14:47;;;;;;;;;15.33;15.00;;;;;;;;4950441;28;45638;-74
2021/11/18 12:17:18;;;;;;;;;21.75;15.25;;;;;;;;4949111;28;45377;-74
2021/11/18 12:19:49;;;;;;;;;17.25;16.25;;;;;;;;4949125;28;45414;-74
2021/11/18 12:22:29;;;;;;;;;14.33;12.33;;;;;;;;4948751;28;45484;-73
2021/11/18 12:25:00;;;;;;;;;14.00;12.00;;;;;;;;4948823;28;46298;-75
2021/11/18 12:27:27;;;;;;;;;14.33;12.00;;;;;;;;4950321;28;45510;-73
2021/11/18 12:30:12;;;;;;;;;14.00;10.00;;;;;;;;4950930;28;45438;-74
2021/11/18 12:32:38;;;;;;;;;12.00;11.33;;;;;;;;4934069;28;45567;-74
2021/11/18 12:35:32;;;;;;;;;13.67;9.67;;;;;;;;4948411;28;47380;-78
2021/11/18 12:38:08;;;;;;;;;14.50;13.00;;;;;;;;4941512;28;45398;-84
2021/11/18 12:40:36;;;;;;;;;11.67;10.67;;;;;;;;4944235;28;45327;-73
2021/11/18 12:43:20;;;;;;;;;9.75;7.50;;;;;;;;4953566;28;45347;-72
2021/11/18 12:45:49;;;;;;;;;12.33;8.00;;;;;;;;4947924;28;46146;-70
2021/11/18 12:48:14;;;;;;;;;13.50;10.50;;;;;;;;5009148;28;45445;-74
2021/11/18 12:50:40;;;;;;;;;13.25;10.50;;;;;;;;5034392;28;45453;-74
2021/11/18 12:53:11;;;;;;;;;9.50;7.75;;;;;;;;5035097;28;45405;-75
2021/11/18 12:55:54;;;;;;;;;10.33;7.33;;;;;;;;5033866;28;45475;-75
2021/11/18 12:58:22;;;;;;;;;9.00;6.75;;;;;;;;5033664;28;45348;-74
2021/11/18 13:00:49;;;;;;;;;12.25;8.25;;;;;;;;5034412;28;45443;-74
2021/11/18 13:03:34;;;;;;;;;12.67;10.00;;;;;;;;5033689;28;45456;-74
2021/11/18 13:05:59;;;;;;;;;9.25;9.25;;;;;;;;5033236;28;46129;-74
2021/11/18 13:08:30;;;;;;;;;8.67;6.67;;;;;;;;5034406;28;45370;-75
2021/11/18 13:11:16;;;;;;;;;11.00;10.00;;;;;;;;5033779;28;45452;-74
2021/11/18 13:13:42;;;;;;;;;14.75;13.75;;;;;;;;5032516;28;45527;-74
2021/11/18 13:16:18;;;;;;;;;10.33;10.33;;;;;;;;5032864;28;46253;-74
2021/11/18 13:18:48;;;;;;;;;6.67;4.00;;;;;;;;5033920;28;45454;-75
2021/11/18 13:21:13;;;;;;;;;8.00;5.67;;;;;;;;5032641;28;45558;-73
2021/11/18 13:23:57;;;;;;;;;10.33;8.67;;;;;;;;5016220;28;45486;-74
2021/11/18 13:26:30;;;;;;;;;8.33;7.00;;;;;;;;5032684;28;46899;-74
2021/11/18 13:28:59;;;;;;;;;7.00;6.67;;;;;;;;5033411;28;45374;-75
2021/11/18 13:31:29;;;;;;;;;9.00;6.33;;;;;;;;5033602;28;45400;-75
2021/11/18 13:33:55;;;;;;;;;6.00;5.00;;;;;;;;5014653;28;45534;-74
2021/11/18 13:36:20;;;;;;;;;12.00;7.00;;;;;;;;5015154;28;47963;-75
2021/11/18 13:38:59;;;;;;;;;9.00;9.00;;;;;;;;5033788;28;45427;-74
2021/11/18 13:41:59;;;;;;;;;11.33;8.33;;;;;;;;5032445;28;45307;-75
2021/11/18 13:44:29;;;;;;;;;9.67;9.00;;;;;;;;4952248;28;45370;-74
2021/11/18 13:47:03;;;;;;;;;8.33;7.33;;;;;;;;4951606;28;45436;-73
2021/11/18 13:49:29;;;;;;;;;13.33;10.00;;;;;;;;4951508;28;45824;-72
2021/11/18 13:51:56;;;;;;;;;8.00;7.33;;;;;;;;4951703;28;46610;-74
2021/11/18 13:54:36;;;;;;;;;15.67;13.67;;;;;;;;4951386;28;45594;-73
2021/11/18 13:57:04;;;;;;;;;7.00;5.33;;;;;;;;4950575;28;45536;-75
2021/11/18 13:59:38;;;;;;;;;11.67;9.67;;;;;;;;4952645;28;45505;-74
2021/11/18 14:02:03;;;;;;;;;9.67;7.67;;;;;;;;4952042;28;45498;-78
2021/11/18 14:04:32;;;;;;;;;6.67;6.67;;;;;;;;4952041;28;45939;-74
2021/11/18 14:06:57;;;;;;;;;10.00;7.00;;;;;;;;4952161;28;45614;-77
2021/11/18 14:09:25;;;;;;;;;6.33;3.00;;;;;;;;4951615;28;45459;-72
2021/11/18 14:11:53;;;;;;;;;8.67;7.33;;;;;;;;4935503;28;45785;-73
2021/11/18 14:14:36;;;;;;;;;11.00;7.33;;;;;;;;4952722;28;45358;-78
2021/11/18 14:17:22;;;;;;;;;9.33;6.00;;;;;;;;4952123;28;46367;-78
2021/11/18 14:19:54;;;;;;;;;7.00;5.00;;;;;;;;5031605;28;45538;-77
2021/11/18 14:22:27;;;;;;;;;7.33;7.33;;;;;;;;5015229;28;45510;-73
2021/11/18 14:24:53;;;;;;;;;7.33;5.00;;;;;;;;5014469;28;45528;-75
2021/11/18 14:27:18;;;;;;;;;6.67;5.67;;;;;;;;5032870;28;45324;-73